Terminal Aerodrome Forecast
Issued by NWS

Home | Current Version | Previous Version | Text Only | Print | Product List | Glossary On
Versions: 1 2 3 4 5 6 7 8 9 10 11 12 13 14
086
FTUS46 KLOX 282340
TAFPMD
TAF
KPMD 282340Z 2900/2924 32014G22KT P6SM SCT250
     FM290200 32024G32KT P6SM SKC
     FM290500 30009KT P6SM SKC
     FM291200 04011KT P6SM SKC
     FM291700 05017G24KT P6SM SKC
     FM292100 05011KT P6SM SKC=

USA.gov is the U.S. government's official web portal to all federal, state and local government web resources and services.